Plum Tree, Indiana
Current Conditions -  °F | °C
As of 12:15 PM on Sunday 21 Dec 2014 (Local Time) from KHHG Reporting Station
Overcast Overcast  
Wind Chill: 27°   Ceiling: 6000
Heat Index: 33°   Visibility: 7mi
Dew Point: 26°   Wind: 6mph
Humidity: 78%   Direction: 190°S
Pressure: 30.24"   Gusts: NA
Location:  40.6897°N, 85.3916°W
Report Text: KHHG 211715Z AUTO 19005KT 7SM OVC060 00/M03 A3024 RMK AO2 T00031032
Loading
Personal Weather Stations






























Interactive Weather Map New forecast layout! Learn more

10-Day Weather Forecast

Advertisements
Track Severe Weather on mobile